Time;durP1;ratioP1;P1;durP2;ratioP2;P2;SDS_P1;SDS_P2;PMS_P1;PMS_P2;Temp;Humidity;BMP_temperature;BMP_pressure;BME280_temperature;BME280_humidity;BME280_pressure;Samples;Min_cycle;Max_cycle;Signal;HPM_P1;HPM_P2
2023/04/16 00:00:47;;;;;;;53.70;48.70;;;;;;;4.44;89.44;97477.67;106772;1276;22524;-85
2023/04/16 00:03:30;;;;;;;52.20;47.70;;;;;;;4.31;89.55;97480.67;106858;1276;22718;-85
2023/04/16 00:05:59;;;;;;;50.90;46.40;;;;;;;4.28;89.81;97480.83;106894;1276;25275;-86
2023/04/16 00:08:27;;;;;;;54.40;49.80;;;;;;;4.23;90.00;97482.81;106712;1276;25375;-85
2023/04/16 00:10:55;;;;;;;59.20;54.10;;;;;;;4.15;90.02;97483.30;106851;1276;22528;-83
2023/04/16 00:13:24;;;;;;;62.70;57.50;;;;;;;4.13;90.15;97486.92;106717;1276;25327;-85
2023/04/16 00:15:52;;;;;;;55.60;51.00;;;;;;;4.09;90.10;97488.89;106771;1276;22576;-85
2023/04/16 00:18:20;;;;;;;53.20;48.70;;;;;;;4.08;89.92;97487.23;106737;1276;24423;-84
2023/04/16 00:20:49;;;;;;;54.80;50.10;;;;;;;4.06;89.67;97488.98;106770;1276;25547;-85
2023/04/16 00:23:17;;;;;;;57.80;53.00;;;;;;;3.99;90.05;97488.89;106598;1276;22521;-86
2023/04/16 00:25:46;;;;;;;51.80;47.50;;;;;;;3.97;90.09;97488.52;106545;1266;24184;-85
2023/04/16 00:28:14;;;;;;;49.60;45.30;;;;;;;3.95;90.00;97491.61;106637;1276;22739;-85
2023/04/16 00:30:42;;;;;;;71.50;65.80;;;;;;;3.92;90.47;97492.67;106570;1276;22607;-85
2023/04/16 00:33:10;;;;;;;61.60;56.30;;;;;;;3.82;90.52;97495.44;106608;1270;25355;-85
2023/04/16 00:35:38;;;;;;;61.30;56.00;;;;;;;3.75;90.78;97497.13;106608;1276;24252;-86
2023/04/16 00:38:07;;;;;;;59.30;54.40;;;;;;;3.70;90.97;97496.20;106623;1276;22538;-84
2023/04/16 00:40:35;;;;;;;53.30;48.60;;;;;;;3.62;90.94;97496.84;106694;1276;23233;-83
2023/04/16 00:43:03;;;;;;;51.90;47.50;;;;;;;3.61;90.84;97499.44;106756;1276;24350;-84
2023/04/16 00:45:31;;;;;;;52.10;47.80;;;;;;;3.58;90.39;97504.02;106760;1276;22535;-84
2023/04/16 00:47:59;;;;;;;52.20;47.80;;;;;;;3.55;91.15;97506.56;106700;1276;25387;-84
2023/04/16 00:50:28;;;;;;;60.60;55.60;;;;;;;3.51;91.63;97505.34;106635;1276;25451;-83
2023/04/16 00:52:57;;;;;;;59.50;54.50;;;;;;;3.52;91.58;97506.73;106889;1276;25510;-83
2023/04/16 00:55:26;;;;;;;61.90;56.80;;;;;;;3.55;91.56;97508.96;106917;1276;23149;-82
2023/04/16 00:57:54;;;;;;;61.50;56.10;;;;;;;3.59;91.28;97509.78;106798;1276;24247;-84
2023/04/16 01:00:22;;;;;;;60.90;55.70;;;;;;;3.59;91.56;97509.88;106852;1276;22531;-83
2023/04/16 01:02:51;;;;;;;58.60;53.60;;;;;;;3.57;91.11;97511.84;106792;1276;22585;-82
2023/04/16 01:05:19;;;;;;;55.00;50.40;;;;;;;3.56;91.23;97517.34;106520;1276;22514;-80
2023/04/16 01:07:47;;;;;;;62.50;57.10;;;;;;;3.58;91.76;97520.91;106661;1276;23890;-83
2023/04/16 01:10:16;;;;;;;62.70;57.10;;;;;;;3.67;91.33;97523.23;106651;1276;22602;-84
2023/04/16 01:12:44;;;;;;;68.60;62.50;;;;;;;3.75;91.89;97523.02;106690;1276;23150;-83
2023/04/16 01:15:12;;;;;;;76.20;69.10;;;;;;;3.88;91.95;97525.95;106700;1276;22537;-84
2023/04/16 01:17:44;;;;;;;78.90;71.70;;;;;;;4.07;92.66;97531.88;106652;1276;22523;-83
2023/04/16 01:20:13;;;;;;;66.10;59.80;;;;;;;4.24;92.74;97535.78;106680;1276;24118;-85
2023/04/16 01:22:41;;;;;;;111.60;71.50;;;;;;;4.38;92.23;97536.99;106679;1276;22534;-84
2023/04/16 01:25:14;;;;;;;106.50;72.70;;;;;;;4.49;92.48;97536.95;106634;1276;22748;-85
2023/04/16 01:27:42;;;;;;;95.20;70.20;;;;;;;4.60;92.36;97538.97;106760;1253;22522;-85
2023/04/16 01:30:10;;;;;;;158.60;73.70;;;;;;;4.68;92.31;97535.60;106729;1276;24265;-84
2023/04/16 01:32:48;;;;;;;81.80;71.80;;;;;;;4.76;92.36;97539.05;106614;1276;22639;-85
2023/04/16 01:35:17;;;;;;;141.90;73.30;;;;;;;4.81;92.17;97540.06;106686;1276;22782;-84
2023/04/16 01:37:45;;;;;;;276.90;78.80;;;;;;;4.82;92.21;97542.51;106693;1276;25398;-85
2023/04/16 01:40:13;;;;;;;216.00;76.20;;;;;;;4.83;92.37;97546.94;106685;1276;22929;-85
2023/04/16 01:42:41;;;;;;;286.90;72.00;;;;;;;4.88;92.46;97544.91;106669;1276;24349;-85
2023/04/16 01:45:10;;;;;;;252.90;66.40;;;;;;;4.92;92.63;97545.11;106616;1253;24060;-85
2023/04/16 01:47:37;;;;;;;173.90;68.30;;;;;;;4.97;92.84;97545.15;106570;1276;22943;-86
2023/04/16 01:50:06;;;;;;;153.00;69.40;;;;;;;5.00;93.05;97549.96;106690;1276;25389;-86
2023/04/16 01:52:34;;;;;;;229.70;68.20;;;;;;;5.02;92.92;97552.23;106622;1276;22608;-87
2023/04/16 01:55:02;;;;;;;186.50;65.90;;;;;;;5.04;93.22;97549.19;106628;1276;24587;-86
2023/04/16 01:57:30;;;;;;;112.80;58.80;;;;;;;5.03;94.85;97545.35;106665;1276;22534;-85
2023/04/16 01:59:58;;;;;;;126.10;57.50;;;;;;;5.00;95.60;97541.67;106539;1276;25595;-84
2023/04/16 02:02:27;;;;;;;154.70;64.80;;;;;;;4.98;97.15;97545.41;106701;1276;22522;-85
2023/04/16 02:04:56;;;;;;;183.80;60.10;;;;;;;4.96;95.91;97547.92;106944;1276;22575;-84
2023/04/16 02:07:24;;;;;;;135.60;57.90;;;;;;;4.95;96.60;97547.72;107082;1276;25902;-87
2023/04/16 02:09:53;;;;;;;225.50;63.60;;;;;;;4.96;97.04;97547.44;108093;1276;22520;-85
2023/04/16 02:12:20;;;;;;;169.20;63.40;;;;;;;4.96;96.32;97548.98;107564;1276;25626;-86
2023/04/16 02:14:48;;;;;;;109.60;54.80;;;;;;;4.99;96.41;97551.23;106984;1276;22619;-86
2023/04/16 02:17:18;;;;;;;76.00;55.00;;;;;;;5.01;97.23;97553.27;106988;1276;24144;-85
2023/04/16 02:19:49;;;;;;;143.70;58.60;;;;;;;4.99;97.34;97554.97;107841;1276;22779;-87
2023/04/16 02:22:17;;;;;;;120.80;56.30;;;;;;;5.00;96.65;97554.16;106647;1276;22629;-87
2023/04/16 02:24:46;;;;;;;85.10;52.10;;;;;;;5.04;96.37;97560.30;106809;1276;25278;-86
2023/04/16 02:27:14;;;;;;;95.70;56.80;;;;;;;5.06;97.08;97561.52;106645;1276;22625;-85
2023/04/16 02:29:43;;;;;;;123.20;50.10;;;;;;;5.06;96.51;97565.16;106664;1276;24401;-84
2023/04/16 02:32:14;;;;;;;121.30;50.70;;;;;;;5.05;96.85;97566.38;106657;1276;24425;-85
2023/04/16 02:34:44;;;;;;;84.70;59.10;;;;;;;5.03;96.94;97569.02;106635;1276;24363;-85
2023/04/16 02:37:14;;;;;;;90.60;51.90;;;;;;;5.04;96.58;97567.52;106498;1276;22546;-85
2023/04/16 02:39:42;;;;;;;76.20;46.40;;;;;;;5.07;96.72;97561.15;106632;1276;22639;-85
2023/04/16 02:42:37;;;;;;;106.20;46.30;;;;;;;5.08;97.99;97562.85;106707;1276;22803;-84
2023/04/16 02:45:14;;;;;;;95.50;49.50;;;;;;;5.02;99.19;97561.33;106713;1276;23149;-85
2023/04/16 02:47:42;;;;;;;52.00;47.10;;;;;;;4.94;98.39;97560.96;106696;1276;22607;-82
2023/04/16 02:50:10;;;;;;;57.20;47.10;;;;;;;4.93;99.09;97562.02;106710;1276;22525;-83
2023/04/16 02:52:38;;;;;;;58.90;51.70;;;;;;;4.93;98.15;97564.00;106649;1276;22543;-82
2023/04/16 02:55:07;;;;;;;52.10;47.20;;;;;;;4.93;97.29;97567.38;106669;1276;24129;-82
2023/04/16 02:57:35;;;;;;;47.70;43.00;;;;;;;4.93;98.01;97564.33;106492;1276;25340;-78
2023/04/16 03:00:04;;;;;;;45.90;41.60;;;;;;;4.91;98.38;97573.63;106463;1276;25327;-83
2023/04/16 03:02:32;;;;;;;44.40;40.40;;;;;;;4.85;98.46;97575.08;106696;1276;23222;-82
2023/04/16 03:05:00;;;;;;;45.30;41.20;;;;;;;4.84;98.60;97578.96;106622;1276;22653;-84
2023/04/16 03:07:28;;;;;;;44.00;39.90;;;;;;;4.82;98.66;97582.08;106457;1276;22535;-84
2023/04/16 03:09:57;;;;;;;43.10;39.10;;;;;;;4.80;97.86;97588.27;106636;1276;22577;-84
2023/04/16 03:12:25;;;;;;;46.30;42.30;;;;;;;4.79;98.36;97587.52;106674;1276;23435;-84
2023/04/16 03:14:53;;;;;;;43.40;39.50;;;;;;;4.74;97.74;97593.13;106613;1265;22648;-84
2023/04/16 03:17:21;;;;;;;46.90;42.60;;;;;;;4.75;98.18;97589.82;106697;1276;22631;-85
2023/04/16 03:19:49;;;;;;;44.30;40.30;;;;;;;4.79;97.65;97589.17;106662;1276;23904;-83
2023/04/16 03:22:19;;;;;;;42.40;38.20;;;;;;;4.82;97.51;97596.21;106860;1276;22548;-88
2023/04/16 03:24:47;;;;;;;43.80;39.80;;;;;;;4.82;97.14;97598.68;106513;1276;22537;-86
2023/04/16 03:27:15;;;;;;;44.10;40.00;;;;;;;4.83;97.29;97604.60;106683;1273;25428;-86
2023/04/16 03:29:44;;;;;;;47.40;42.90;;;;;;;4.91;98.12;97604.92;106648;1276;22637;-86
2023/04/16 03:32:13;;;;;;;55.50;50.40;;;;;;;4.94;97.85;97607.10;106709;1276;22613;-88
2023/04/16 03:34:41;;;;;;;51.90;46.40;;;;;;;4.95;97.76;97612.65;106656;1276;22564;-85
2023/04/16 03:37:12;;;;;;;55.70;45.60;;;;;;;4.95;98.12;97612.87;106532;1276;24253;-88
2023/04/16 03:39:40;;;;;;;64.70;46.50;;;;;;;4.95;97.84;97618.84;106723;1276;24362;-87
2023/04/16 03:42:10;;;;;;;57.20;48.40;;;;;;;4.99;98.15;97622.85;106693;1276;24333;-87
2023/04/16 03:44:38;;;;;;;59.30;49.30;;;;;;;5.05;98.00;97628.86;106697;1276;25329;-90
2023/04/16 03:47:06;;;;;;;91.80;48.10;;;;;;;5.08;97.79;97624.33;106473;1276;22984;-86
2023/04/16 03:49:35;;;;;;;131.10;43.90;;;;;;;5.10;99.42;97621.13;106702;1276;25330;-87
2023/04/16 03:52:03;;;;;;;163.40;51.90;;;;;;;5.04;98.66;97620.39;106738;1276;22527;-86
2023/04/16 03:54:31;;;;;;;140.40;46.50;;;;;;;4.99;98.62;97626.42;106846;1276;24772;-85
2023/04/16 03:57:09;;;;;;;114.00;45.80;;;;;;;4.97;98.30;97630.00;106754;1276;22604;-87
2023/04/16 03:59:37;;;;;;;101.70;43.80;;;;;;;4.99;98.40;97630.55;106998;1276;22783;-85
2023/04/16 04:02:06;;;;;;;77.30;41.80;;;;;;;4.99;98.89;97631.88;106746;1276;22541;-86
2023/04/16 04:04:34;;;;;;;134.90;40.90;;;;;;;4.99;99.18;97636.31;106751;1276;25305;-83
2023/04/16 04:07:03;;;;;;;100.60;42.50;;;;;;;4.97;98.51;97642.89;106771;1276;24299;-84
2023/04/16 04:09:32;;;;;;;88.00;38.30;;;;;;;5.01;98.78;97640.84;106781;1276;25400;-87
2023/04/16 04:12:03;;;;;;;88.10;45.10;;;;;;;5.01;98.65;97651.20;106748;1276;24367;-83
2023/04/16 04:14:31;;;;;;;92.00;46.70;;;;;;;5.01;98.67;97655.16;106686;1276;24381;-85
2023/04/16 04:16:59;;;;;;;169.50;49.90;;;;;;;5.03;98.75;97658.48;106647;1276;24257;-84
2023/04/16 04:19:27;;;;;;;107.90;47.20;;;;;;;5.05;99.08;97665.25;106696;1276;22608;-83
2023/04/16 04:21:55;;;;;;;95.50;39.70;;;;;;;5.03;99.85;97672.09;106713;1276;25679;-84
2023/04/16 04:24:23;;;;;;;145.40;42.40;;;;;;;4.95;100.00;97673.63;106461;1276;22566;-86
2023/04/16 04:26:51;;;;;;;208.10;46.50;;;;;;;4.83;100.00;97674.98;106695;1276;22564;-83
2023/04/16 04:29:19;;;;;;;165.60;45.70;;;;;;;4.74;100.00;97678.92;106569;1276;22658;-84
2023/04/16 04:31:47;;;;;;;161.80;44.80;;;;;;;4.70;100.00;97676.77;106683;1276;22524;-82
2023/04/16 04:34:15;;;;;;;95.30;42.20;;;;;;;4.67;100.00;97685.75;106740;1276;24350;-85
2023/04/16 04:36:44;;;;;;;84.40;37.40;;;;;;;4.68;100.00;97689.27;106933;1276;25870;-82
2023/04/16 04:39:13;;;;;;;156.80;36.60;;;;;;;4.71;100.00;97688.80;107667;1276;22524;-81
2023/04/16 04:41:42;;;;;;;84.80;37.20;;;;;;;4.74;100.00;97690.60;107688;1276;22545;-81
2023/04/16 04:44:10;;;;;;;67.90;34.80;;;;;;;4.78;100.00;97690.98;108356;1276;22579;-83
2023/04/16 04:46:39;;;;;;;166.70;39.80;;;;;;;4.80;100.00;97691.73;107270;1276;25275;-85
2023/04/16 04:49:08;;;;;;;110.60;38.00;;;;;;;4.81;100.00;97693.81;106672;1276;25356;-84
2023/04/16 04:51:36;;;;;;;88.70;39.50;;;;;;;4.84;100.00;97696.42;106781;1276;23164;-85
2023/04/16 04:54:05;;;;;;;109.30;40.30;;;;;;;4.90;100.00;97697.02;106641;1276;22526;-85
2023/04/16 04:56:33;;;;;;;73.50;35.90;;;;;;;4.98;100.00;97700.71;106762;1276;24347;-84
2023/04/16 04:59:01;;;;;;;86.80;37.50;;;;;;;5.00;100.00;97703.81;106913;1276;22810;-82
2023/04/16 05:01:29;;;;;;;116.50;40.80;;;;;;;4.98;100.00;97706.42;106923;1276;23896;-82
2023/04/16 05:03:57;;;;;;;65.00;38.10;;;;;;;4.97;100.00;97710.39;106621;1276;25036;-83
2023/04/16 05:06:25;;;;;;;58.10;39.70;;;;;;;4.99;100.00;97711.98;106736;1276;25400;-81
2023/04/16 05:08:56;;;;;;;66.30;38.10;;;;;;;5.03;100.00;97709.90;106759;1276;22794;-85
2023/04/16 05:11:24;;;;;;;93.50;40.40;;;;;;;5.08;100.00;97714.92;106706;1276;22887;-78
2023/04/16 05:13:52;;;;;;;55.50;41.40;;;;;;;5.15;100.00;97711.45;106866;1276;25403;-77
2023/04/16 05:16:20;;;;;;;38.70;34.40;;;;;;;5.22;100.00;97713.42;106836;1276;22542;-78
2023/04/16 05:18:49;;;;;;;103.10;40.60;;;;;;;5.28;100.00;97719.13;106992;1276;22736;-77
2023/04/16 05:21:17;;;;;;;46.30;36.50;;;;;;;5.28;100.00;97724.31;106912;1276;24212;-78
2023/04/16 05:23:45;;;;;;;50.40;35.60;;;;;;;5.29;100.00;97724.20;106842;1276;22521;-77
2023/04/16 05:26:13;;;;;;;38.90;33.50;;;;;;;5.32;100.00;97724.89;106863;1276;22644;-77
2023/04/16 05:28:40;;;;;;;75.00;35.60;;;;;;;5.32;100.00;97726.55;106870;1276;22530;-77
2023/04/16 05:31:09;;;;;;;91.90;33.70;;;;;;;5.31;100.00;97724.36;106896;1271;23897;-78
2023/04/16 05:33:37;;;;;;;34.40;30.30;;;;;;;5.31;100.00;97727.95;107454;1276;22576;-77
2023/04/16 05:36:05;;;;;;;70.70;37.40;;;;;;;5.34;100.00;97728.14;106832;1276;22531;-77
2023/04/16 05:38:33;;;;;;;71.60;36.00;;;;;;;5.42;100.00;97730.77;106865;1276;24351;-76
2023/04/16 05:41:01;;;;;;;125.40;36.20;;;;;;;5.46;100.00;97738.40;106712;1276;24392;-76
2023/04/16 05:43:29;;;;;;;79.60;40.40;;;;;;;5.51;100.00;97741.40;106735;1276;22528;-75
2023/04/16 05:45:57;;;;;;;46.50;35.90;;;;;;;5.58;100.00;97745.33;106728;1276;22529;-76
2023/04/16 05:48:24;;;;;;;88.50;37.30;;;;;;;5.65;100.00;97749.28;106794;1276;163926;-75
2023/04/16 05:50:52;;;;;;;59.60;35.50;;;;;;;5.70;100.00;97753.61;106813;1270;24354;-75
2023/04/16 05:53:20;;;;;;;49.40;35.20;;;;;;;5.76;100.00;97766.59;106709;1276;25522;-76
2023/04/16 05:55:48;;;;;;;58.30;40.30;;;;;;;5.78;100.00;97765.23;106758;1276;25574;-76
2023/04/16 05:58:16;;;;;;;58.80;37.50;;;;;;;5.83;100.00;97771.48;106698;1276;22758;-75
2023/04/16 06:00:44;;;;;;;70.30;38.60;;;;;;;5.87;100.00;97774.10;106731;1276;24252;-75
2023/04/16 06:03:12;;;;;;;57.10;39.00;;;;;;;5.93;100.00;97775.39;106701;1276;22514;-75
2023/04/16 06:05:40;;;;;;;53.10;40.20;;;;;;;6.01;100.00;97775.65;106406;1276;25737;-74
2023/04/16 06:08:08;;;;;;;87.00;43.70;;;;;;;6.02;100.00;97778.43;106702;1276;22653;-75
2023/04/16 06:10:36;;;;;;;79.20;48.60;;;;;;;6.05;100.00;97777.95;106731;1272;22658;-75
2023/04/16 06:13:04;;;;;;;64.10;42.70;;;;;;;6.11;100.00;97779.74;106709;1274;22527;-74
2023/04/16 06:15:32;;;;;;;68.20;42.60;;;;;;;6.21;100.00;97780.34;106709;1276;22525;-75
2023/04/16 06:18:00;;;;;;;52.70;39.60;;;;;;;6.28;100.00;97784.06;106884;1276;23022;-76
2023/04/16 06:20:29;;;;;;;44.50;39.70;;;;;;;6.31;100.00;97782.77;106717;1276;24266;-76
2023/04/16 06:22:57;;;;;;;43.70;39.30;;;;;;;6.37;100.00;97785.96;106720;1276;22664;-76
2023/04/16 06:25:25;;;;;;;45.10;40.50;;;;;;;6.44;100.00;97783.42;106715;1276;22623;-75
2023/04/16 06:27:53;;;;;;;48.40;37.90;;;;;;;6.51;100.00;97785.30;106866;1276;24652;-76
2023/04/16 06:30:21;;;;;;;37.50;33.50;;;;;;;6.57;100.00;97789.84;106994;1276;22515;-76
2023/04/16 06:32:49;;;;;;;36.40;33.10;;;;;;;6.61;100.00;97787.57;106843;1276;24057;-74
2023/04/16 06:35:19;;;;;;;35.70;32.30;;;;;;;6.64;100.00;97786.33;106719;1276;22520;-74
2023/04/16 06:37:47;;;;;;;35.50;32.10;;;;;;;6.67;100.00;97784.22;106528;1276;24375;-76
2023/04/16 06:40:15;;;;;;;38.40;34.60;;;;;;;6.78;100.00;97778.86;106851;1276;22636;-76
2023/04/16 06:42:43;;;;;;;36.50;33.10;;;;;;;6.91;100.00;97777.07;106691;1276;25385;-76
2023/04/16 06:45:12;;;;;;;35.50;32.10;;;;;;;6.90;100.00;97771.98;106848;1276;22641;-76
2023/04/16 06:47:40;;;;;;;39.10;35.30;;;;;;;6.95;100.00;97774.46;106835;1276;22650;-77
2023/04/16 06:50:09;;;;;;;36.10;32.50;;;;;;;7.10;100.00;97776.45;106624;1276;22523;-75
2023/04/16 06:52:37;;;;;;;39.20;35.50;;;;;;;7.21;100.00;97780.67;106767;1276;22551;-76
2023/04/16 06:55:08;;;;;;;38.00;34.40;;;;;;;7.25;100.00;97784.08;106461;1276;24174;-77
2023/04/16 06:57:36;;;;;;;33.30;30.20;;;;;;;7.36;100.00;97780.83;106721;1276;25359;-76
2023/04/16 07:00:05;;;;;;;34.40;31.20;;;;;;;7.51;100.00;97781.55;106766;1276;24251;-76
2023/04/16 07:02:33;;;;;;;32.00;28.90;;;;;;;7.63;100.00;97784.56;106755;1276;22596;-75
2023/04/16 07:05:02;;;;;;;32.80;29.50;;;;;;;7.76;100.00;97790.88;106712;1276;25517;-75
2023/04/16 07:07:31;;;;;;;35.70;32.30;;;;;;;7.87;100.00;97795.08;106737;1276;25327;-74
2023/04/16 07:09:59;;;;;;;33.10;29.90;;;;;;;7.92;100.00;97793.67;106710;1276;24364;-74
2023/04/16 07:12:27;;;;;;;36.50;33.10;;;;;;;7.97;100.00;97795.82;106532;1276;22796;-75
2023/04/16 07:14:55;;;;;;;34.50;31.10;;;;;;;8.10;100.00;97797.20;106734;1276;22648;-74
2023/04/16 07:17:24;;;;;;;37.90;34.40;;;;;;;8.28;100.00;97797.00;106692;1271;22541;-75
2023/04/16 07:19:53;;;;;;;36.60;33.20;;;;;;;8.41;100.00;97801.42;106741;1276;24649;-75
2023/04/16 07:22:20;;;;;;;33.70;30.60;;;;;;;8.50;100.00;97811.43;106740;1276;22527;-79
2023/04/16 07:24:49;;;;;;;35.10;31.80;;;;;;;8.54;100.00;97811.77;106723;1276;22530;-76
2023/04/16 07:27:17;;;;;;;33.50;30.40;;;;;;;8.63;100.00;97813.70;106771;1276;22632;-75
2023/04/16 07:29:45;;;;;;;35.80;32.40;;;;;;;8.76;100.00;97812.19;106725;1276;22641;-77
2023/04/16 07:32:13;;;;;;;35.20;32.00;;;;;;;8.88;100.00;97818.70;106737;1276;23608;-74
2023/04/16 07:34:42;;;;;;;39.40;35.60;;;;;;;8.99;100.00;97818.59;106739;1276;22532;-74
2023/04/16 07:37:10;;;;;;;35.50;32.20;;;;;;;9.05;100.00;97815.48;106771;1276;24244;-76
2023/04/16 07:39:38;;;;;;;36.40;32.90;;;;;;;9.19;100.00;97823.43;106700;1276;22534;-75
2023/04/16 07:42:07;;;;;;;36.40;33.10;;;;;;;9.36;100.00;97827.79;106695;1276;26947;-75
2023/04/16 07:44:35;;;;;;;37.60;34.30;;;;;;;9.54;100.00;97828.48;106725;1276;25329;-75
2023/04/16 07:47:03;;;;;;;34.50;31.30;;;;;;;9.65;100.00;97832.98;106729;1276;22658;-74
2023/04/16 07:49:33;;;;;;;31.80;29.00;;;;;;;9.67;100.00;97830.92;106695;1276;25495;-74
2023/04/16 07:52:01;;;;;;;27.80;25.30;;;;;;;9.75;100.00;97834.81;106491;1276;24354;-75
2023/04/16 07:54:29;;;;;;;30.00;27.40;;;;;;;9.88;100.00;97838.42;106703;1276;24273;-74
2023/04/16 07:56:56;;;;;;;29.10;26.50;;;;;;;9.98;100.00;97836.25;106732;1276;25473;-75
2023/04/16 07:59:24;;;;;;;28.50;25.80;;;;;;;9.99;100.00;97838.97;106733;1276;24393;-79
2023/04/16 08:01:53;;;;;;;22.70;20.70;;;;;;;10.01;99.81;97842.29;106733;1276;25327;-79
2023/04/16 08:04:23;;;;;;;21.10;19.10;;;;;;;10.00;99.63;97840.95;106799;1276;23338;-79
2023/04/16 08:06:53;;;;;;;22.60;20.40;;;;;;;10.02;98.13;97843.19;106781;1276;22523;-78
2023/04/16 08:09:22;;;;;;;24.20;22.10;;;;;;;9.97;98.39;97841.11;106788;1276;24339;-77
2023/04/16 08:11:51;;;;;;;26.10;23.80;;;;;;;10.09;98.21;97845.05;106762;1276;22558;-76
2023/04/16 08:14:19;;;;;;;25.40;23.10;;;;;;;10.25;99.68;97844.55;106724;1276;22574;-77
2023/04/16 08:16:48;;;;;;;22.60;20.30;;;;;;;10.46;99.24;97846.77;106697;1276;22530;-77
2023/04/16 08:19:16;;;;;;;18.60;16.80;;;;;;;10.56;96.54;97852.04;106785;1265;25175;-78
2023/04/16 08:21:45;;;;;;;19.70;17.70;;;;;;;10.56;96.08;97853.96;106748;1276;24016;-76
2023/04/16 08:24:13;;;;;;;22.30;20.20;;;;;;;10.64;95.40;97852.05;106739;1260;24226;-76
2023/04/16 08:26:41;;;;;;;20.40;18.50;;;;;;;10.60;94.52;97853.19;106446;1276;22738;-76
2023/04/16 08:29:09;;;;;;;16.50;15.00;;;;;;;10.69;93.78;97855.11;106752;1276;22532;-77
2023/04/16 08:31:38;;;;;;;20.60;18.60;;;;;;;10.61;90.07;97859.95;106764;1253;24195;-77
2023/04/16 08:34:06;;;;;;;19.40;17.60;;;;;;;10.57;90.98;97861.49;106741;1276;22635;-79
2023/04/16 08:36:34;;;;;;;20.80;18.80;;;;;;;10.70;91.84;97852.77;106682;1276;22508;-77
2023/04/16 08:39:02;;;;;;;22.60;20.50;;;;;;;10.84;90.80;97854.32;106620;1276;22532;-77
2023/04/16 08:41:35;;;;;;;24.30;22.10;;;;;;;10.87;89.78;97854.20;106880;1276;24056;-76
2023/04/16 08:44:08;;;;;;;22.00;19.90;;;;;;;10.98;89.65;97863.94;106889;1267;25391;-77
2023/04/16 08:46:37;;;;;;;20.60;18.60;;;;;;;11.07;88.84;97863.54;106729;1276;22541;-77
2023/04/16 08:49:06;;;;;;;19.50;17.60;;;;;;;11.18;89.30;97869.88;106776;1258;25415;-77
2023/04/16 08:51:35;;;;;;;19.70;17.60;;;;;;;11.14;88.09;97880.66;106822;1276;22640;-78
2023/04/16 08:54:07;;;;;;;19.50;17.70;;;;;;;10.99;87.01;97878.21;106993;1276;25329;-78
2023/04/16 08:56:38;;;;;;;23.10;20.70;;;;;;;10.88;87.35;97875.27;107295;1276;23236;-80
2023/04/16 08:59:08;;;;;;;23.10;21.00;;;;;;;10.92;88.69;97873.07;106861;1276;25264;-78
2023/04/16 09:01:40;;;;;;;21.90;19.70;;;;;;;11.05;88.55;97878.02;106942;1276;25525;-79
2023/04/16 09:04:08;;;;;;;22.90;20.70;;;;;;;11.16;87.36;97883.05;106881;1276;25395;-78
2023/04/16 09:06:37;;;;;;;20.00;18.10;;;;;;;11.28;86.84;97881.81;106829;1276;24122;-78
2023/04/16 09:09:07;;;;;;;22.80;20.60;;;;;;;11.52;87.08;97876.14;106906;1276;24230;-77
2023/04/16 09:11:38;;;;;;;20.80;18.80;;;;;;;11.72;86.56;97878.20;106837;1276;22528;-77
2023/04/16 09:14:10;;;;;;;19.80;18.00;;;;;;;11.86;82.15;97880.92;106470;1276;25340;-76
2023/04/16 09:16:38;;;;;;;16.30;14.30;;;;;;;11.81;80.45;97879.52;106487;1276;22603;-77
2023/04/16 09:19:06;;;;;;;17.10;15.40;;;;;;;11.81;82.06;97881.75;106820;1276;23390;-79
2023/04/16 09:21:35;;;;;;;16.20;14.80;;;;;;;11.98;83.20;97875.85;106833;1276;25279;-81
2023/04/16 09:24:04;;;;;;;15.00;13.60;;;;;;;12.24;85.10;97873.77;106909;1276;22635;-78
2023/04/16 09:26:32;;;;;;;15.80;14.20;;;;;;;12.40;80.93;97879.31;106857;1276;22636;-81
2023/04/16 09:29:01;;;;;;;15.70;14.20;;;;;;;12.30;78.92;97880.98;106754;1276;22538;-77
2023/04/16 09:31:29;;;;;;;14.40;13.00;;;;;;;12.32;80.82;97884.70;106760;1276;25472;-80
2023/04/16 09:34:08;;;;;;;13.90;12.70;;;;;;;12.48;80.58;97881.83;106759;1276;22654;-83
2023/04/16 09:36:36;;;;;;;15.90;14.40;;;;;;;12.65;82.86;97877.70;106968;1276;22490;-81
2023/04/16 09:39:05;;;;;;;16.40;14.90;;;;;;;12.89;81.51;97877.65;106622;1276;22609;-84
2023/04/16 09:41:38;;;;;;;11.00;9.30;;;;;;;13.01;81.09;97877.52;106820;1276;25447;-77
2023/04/16 09:44:06;;;;;;;13.70;12.50;;;;;;;13.10;77.22;97882.60;106691;1276;24187;-76
2023/04/16 09:46:42;;;;;;;11.00;10.00;;;;;;;13.13;75.13;97880.58;106501;1276;24441;-73
2023/04/16 09:49:16;;;;;;;11.50;10.40;;;;;;;13.23;73.86;97883.48;106842;1276;22539;-73
2023/04/16 09:51:49;;;;;;;9.30;8.40;;;;;;;13.34;74.82;97881.59;106755;1276;24260;-74
2023/04/16 09:54:19;;;;;;;11.80;10.60;;;;;;;13.59;76.28;97876.57;106659;1276;22552;-80
2023/04/16 09:56:55;;;;;;;11.00;10.00;;;;;;;13.79;73.55;97881.83;106804;1276;22688;-80
2023/04/16 09:59:24;;;;;;;12.80;11.40;;;;;;;13.72;73.49;97886.23;106760;1276;25396;-80
2023/04/16 10:01:59;;;;;;;13.80;12.40;;;;;;;13.78;72.30;97884.91;106522;1276;25495;-78
2023/04/16 10:04:47;;;;;;;12.60;11.40;;;;;;;14.05;75.18;97884.85;106769;1276;22543;-77
2023/04/16 10:07:16;;;;;;;10.50;8.50;;;;;;;14.50;77.21;97874.61;106808;1276;22637;-78
2023/04/16 10:09:48;;;;;;;8.90;8.00;;;;;;;15.14;76.37;97875.91;106732;1276;25598;-79
2023/04/16 10:12:17;;;;;;;8.50;7.70;;;;;;;15.57;71.27;97878.00;106769;1276;23054;-80
2023/04/16 10:14:45;;;;;;;9.80;8.80;;;;;;;15.60;67.97;97879.57;106828;1276;22605;-81
2023/04/16 10:17:16;;;;;;;8.30;7.50;;;;;;;15.65;66.93;97879.38;106791;1276;24751;-81
2023/04/16 10:19:45;;;;;;;7.50;6.80;;;;;;;15.68;65.37;97881.90;106474;1276;22525;-80
2023/04/16 10:22:14;;;;;;;9.70;8.70;;;;;;;15.63;63.13;97885.93;106765;1276;22791;-79
2023/04/16 10:24:42;;;;;;;9.30;8.40;;;;;;;15.64;66.01;97888.42;106779;1276;22834;-79
2023/04/16 10:27:11;;;;;;;8.10;6.80;;;;;;;15.77;65.85;97884.89;106797;1276;23947;-79
2023/04/16 10:29:40;;;;;;;9.90;8.90;;;;;;;15.76;60.33;97884.45;106452;1276;24235;-79
2023/04/16 10:32:09;;;;;;;9.00;8.10;;;;;;;15.54;62.01;97886.48;106576;1276;24056;-79
2023/04/16 10:34:38;;;;;;;8.90;6.70;;;;;;;15.84;64.26;97884.92;106826;1276;25386;-78
2023/04/16 10:37:06;;;;;;;7.20;6.50;;;;;;;16.24;64.61;97888.56;106745;1265;24212;-78
2023/04/16 10:39:36;;;;;;;8.00;6.90;;;;;;;16.63;61.70;97889.71;106789;1275;25325;-78
2023/04/16 10:42:11;;;;;;;6.70;6.00;;;;;;;16.49;57.87;97895.08;106799;1275;22639;-77
2023/04/16 10:44:40;;;;;;;6.40;5.80;;;;;;;16.28;61.41;97893.07;106786;1275;25472;-79
2023/04/16 10:47:13;;;;;;;8.80;6.80;;;;;;;16.06;59.49;97892.45;106702;1274;22787;-79
2023/04/16 10:49:42;;;;;;;7.00;6.30;;;;;;;15.69;60.24;97890.88;107013;1275;25259;-79
2023/04/16 10:52:15;;;;;;;6.70;6.00;;;;;;;15.31;60.78;97890.61;106840;1275;24218;-78
2023/04/16 10:54:46;;;;;;;6.50;5.80;;;;;;;15.06;59.55;97893.13;107126;1275;22655;-77
2023/04/16 10:57:16;;;;;;;6.80;5.60;;;;;;;14.74;57.64;97890.25;106862;1275;22544;-78
2023/04/16 10:59:47;;;;;;;6.70;5.70;;;;;;;14.47;57.30;97891.03;106994;1275;22534;-78
2023/04/16 11:02:17;;;;;;;6.20;5.20;;;;;;;14.32;57.10;97890.27;106908;1275;22517;-79
2023/04/16 11:04:47;;;;;;;6.60;5.80;;;;;;;14.22;57.93;97891.32;106768;1275;23845;-79
2023/04/16 11:07:19;;;;;;;6.00;5.40;;;;;;;14.21;58.06;97893.84;106970;1275;22548;-76
2023/04/16 11:09:53;;;;;;;6.40;5.50;;;;;;;14.19;57.10;97897.08;106633;1275;22625;-80
2023/04/16 11:12:26;;;;;;;6.00;5.40;;;;;;;14.15;57.24;97900.45;107010;1275;22535;-80
2023/04/16 11:15:02;;;;;;;11.20;9.30;;;;;;;14.22;58.94;97895.81;107267;1275;25483;-82
2023/04/16 11:17:35;;;;;;;6.80;6.10;;;;;;;14.52;60.89;97895.77;107175;1275;22475;-85
2023/04/16 11:20:06;;;;;;;7.70;6.90;;;;;;;14.75;59.04;97893.46;107074;1275;22584;-80